Time;durP1;ratioP1;P1;durP2;ratioP2;P2;SDS_P1;SDS_P2;PMS_P1;PMS_P2;Temp;Humidity;BMP_temperature;BMP_pressure;BME280_temperature;BME280_humidity;BME280_pressure;Samples;Min_cycle;Max_cycle;Signal;HPM_P1;HPM_P2
2023/06/30 00:00:21;;;;;;;;;2.33;2.33;;;;;20.36;64.31;101304.53;5068134;28;63078;-59
2023/06/30 00:02:47;;;;;;;;;3.67;3.67;;;;;20.31;63.37;101294.13;5073676;27;45784;-59
2023/06/30 00:05:15;;;;;;;;;4.00;3.00;;;;;20.27;64.41;101305.31;5069414;27;45898;-59
2023/06/30 00:07:42;;;;;;;;;5.00;5.00;;;;;20.26;64.71;101301.75;5093026;27;46687;-59
2023/06/30 00:10:08;;;;;;;;;4.67;3.00;;;;;20.26;64.65;101304.47;5071260;27;45443;-59
2023/06/30 00:12:33;;;;;;;;;7.33;5.00;;;;;20.25;64.06;101297.34;5089944;27;45669;-59
2023/06/30 00:14:59;;;;;;;;;6.00;6.00;;;;;20.25;64.18;101296.50;5074298;28;56478;-59
2023/06/30 00:17:25;;;;;;;;;6.67;6.33;;;;;20.20;64.02;101285.22;5093375;27;46372;-59
2023/06/30 00:19:50;;;;;;;;;4.67;3.33;;;;;20.16;63.76;101290.00;5071987;28;49197;-59
2023/06/30 00:22:19;;;;;;;;;9.00;7.00;;;;;20.13;64.09;101287.56;5069899;28;45880;-63
2023/06/30 00:24:46;;;;;;;;;9.67;9.33;;;;;20.10;64.31;101296.78;5073266;28;45416;-59
2023/06/30 00:27:11;;;;;;;;;18.67;15.67;;;;;20.08;63.46;101289.78;5073853;27;46299;-59
2023/06/30 00:29:37;;;;;;;;;15.33;12.00;;;;;20.03;63.75;101283.91;5078853;27;45710;-59
2023/06/30 00:32:02;;;;;;;;;11.33;9.67;;;;;19.95;63.25;101280.00;5073608;27;56321;-59
2023/06/30 00:34:28;;;;;;;;;11.00;11.00;;;;;19.90;63.50;101286.75;5073148;27;45556;-59
2023/06/30 00:36:53;;;;;;;;;11.50;10.50;;;;;19.85;64.04;101289.81;5060760;27;71606;-59
2023/06/30 00:39:18;;;;;;;;;17.67;12.00;;;;;19.82;63.55;101290.09;5069490;27;52424;-59
2023/06/30 00:41:44;;;;;;;;;14.67;12.67;;;;;19.77;64.04;101292.25;5065226;27;55091;-59
2023/06/30 00:44:09;;;;;;;;;14.00;12.00;;;;;19.75;63.90;101294.22;5067321;28;45820;-59
2023/06/30 00:46:34;;;;;;;;;14.67;11.67;;;;;19.73;64.15;101301.59;5070869;27;68732;-59
2023/06/30 00:49:00;;;;;;;;;13.00;13.00;;;;;19.72;64.28;101299.88;5064668;28;61231;-59
2023/06/30 00:51:26;;;;;;;;;10.67;8.33;;;;;19.67;64.28;101309.22;5093511;27;45490;-59
2023/06/30 00:53:51;;;;;;;;;13.00;13.00;;;;;19.69;64.56;101321.72;5073717;28;45544;-59
2023/06/30 00:56:17;;;;;;;;;17.00;15.67;;;;;19.68;64.26;101315.44;5073176;27;46173;-59
2023/06/30 00:58:42;;;;;;;;;15.67;14.33;;;;;19.70;63.82;101326.13;5071796;28;45876;-59
2023/06/30 01:01:29;;;;;;;;;10.67;9.33;;;;;19.66;63.61;101320.97;5077124;27;45432;-59
2023/06/30 01:04:06;;;;;;;;;11.67;8.00;;;;;19.61;64.10;101317.78;5055511;28;45512;-59
2023/06/30 01:06:37;;;;;;;;;6.00;6.00;;;;;19.57;63.73;101329.81;5073205;27;45465;-59
2023/06/30 01:09:11;;;;;;;;;9.67;7.67;;;;;19.50;64.64;101323.19;5081476;27;45483;-59
2023/06/30 01:11:37;;;;;;;;;5.00;5.00;;;;;19.51;63.94;101324.91;5077436;27;45519;-59
2023/06/30 01:14:05;;;;;;;;;5.00;5.00;;;;;19.54;63.64;101327.34;5071413;27;69458;-59
2023/06/30 01:16:32;;;;;;;;;0.67;0.67;;;;;19.53;63.68;101333.75;5083820;27;45419;-59
2023/06/30 01:18:59;;;;;;;;;4.00;4.00;;;;;19.53;63.61;101339.13;5092824;27;45377;-59
2023/06/30 01:21:28;;;;;;;;;2.33;2.33;;;;;19.51;63.62;101324.91;5074957;28;45367;-59
2023/06/30 01:24:05;;;;;;;;;5.00;5.00;;;;;19.50;63.76;101326.75;5081977;27;45528;-59
2023/06/30 01:26:34;;;;;;;;;8.00;6.00;;;;;19.50;63.91;101334.84;5076124;27;46427;-59
2023/06/30 01:29:02;;;;;;;;;6.00;6.00;;;;;19.51;63.64;101335.69;5066963;28;45580;-59
2023/06/30 01:31:31;;;;;;;;;5.00;5.00;;;;;19.50;63.36;101339.34;5061485;28;45406;-59
2023/06/30 01:34:00;;;;;;;;;5.67;4.33;;;;;19.47;64.02;101337.75;5074618;28;45486;-59
2023/06/30 01:36:26;;;;;;;;;6.00;5.00;;;;;19.42;64.15;101339.13;5083531;27;45459;-58
2023/06/30 01:38:51;;;;;;;;;63.25;49.75;;;;;19.40;63.79;101347.34;5071966;27;45487;-59
2023/06/30 01:41:17;;;;;;;;;64.25;46.50;;;;;19.36;64.53;101345.00;5091489;27;45283;-59
2023/06/30 01:43:42;;;;;;;;;25.00;23.67;;;;;19.31;63.56;101348.06;5078879;27;59622;-59
2023/06/30 01:46:08;;;;;;;;;17.33;13.67;;;;;19.26;64.76;101345.72;5075654;27;64287;-59
2023/06/30 01:48:33;;;;;;;;;8.67;8.67;;;;;19.26;65.20;101342.16;5064490;27;63174;-59
2023/06/30 01:50:59;;;;;;;;;7.33;7.33;;;;;19.24;64.83;101339.59;5065083;27;45347;-59
2023/06/30 01:53:25;;;;;;;;;11.33;10.33;;;;;19.26;64.88;101340.31;5073074;27;66361;-59
2023/06/30 01:55:52;;;;;;;;;10.67;10.67;;;;;19.26;64.62;101339.47;5077070;28;47061;-59
2023/06/30 01:58:17;;;;;;;;;10.33;9.00;;;;;19.21;64.85;101339.81;5088886;27;45457;-59
2023/06/30 02:00:43;;;;;;;;;16.00;12.67;;;;;19.19;64.55;101333.72;5067765;27;45341;-59
2023/06/30 02:03:08;;;;;;;;;11.33;9.33;;;;;19.16;64.92;101342.91;5066816;27;57990;-59
2023/06/30 02:05:33;;;;;;;;;10.00;9.67;;;;;19.14;65.02;101328.66;5071695;28;47330;-59
2023/06/30 02:07:59;;;;;;;;;9.33;9.33;;;;;19.12;65.38;101333.31;5088912;27;45434;-59
2023/06/30 02:10:25;;;;;;;;;12.33;12.00;;;;;19.12;64.85;101337.84;5077523;27;45353;-59
2023/06/30 02:12:50;;;;;;;;;13.00;11.33;;;;;19.10;65.21;101329.88;5063227;28;45411;-60
2023/06/30 02:15:16;;;;;;;;;9.33;9.33;;;;;19.08;64.05;101339.06;5067148;27;46108;-59
2023/06/30 02:17:41;;;;;;;;;11.67;11.67;;;;;19.04;64.09;101333.06;5074163;28;45825;-59
2023/06/30 02:20:07;;;;;;;;;10.00;10.00;;;;;18.99;64.72;101336.13;5082860;27;45510;-60
2023/06/30 02:22:33;;;;;;;;;9.67;9.67;;;;;18.96;64.33;101330.09;5062538;27;45769;-59
2023/06/30 02:24:59;;;;;;;;;10.33;10.33;;;;;18.92;64.80;101329.47;5064293;27;45655;-59
2023/06/30 02:27:26;;;;;;;;;11.33;11.00;;;;;18.89;64.40;101334.19;5065031;27;45371;-59
2023/06/30 02:29:51;;;;;;;;;10.33;9.67;;;;;18.86;65.31;101329.91;5072936;28;45365;-59
2023/06/30 02:32:16;;;;;;;;;11.00;10.00;;;;;18.84;65.62;101331.88;5077661;28;45605;-59
2023/06/30 02:34:42;;;;;;;;;8.00;7.67;;;;;18.83;64.62;101330.16;5060582;27;46640;-59
2023/06/30 02:37:07;;;;;;;;;10.67;9.67;;;;;18.82;63.93;101331.13;5090762;27;56836;-59
2023/06/30 02:39:32;;;;;;;;;8.00;8.00;;;;;18.79;65.02;101329.53;5072215;27;63650;-59
2023/06/30 02:41:58;;;;;;;;;8.00;8.00;;;;;18.75;65.23;101328.03;5076705;27;45480;-59
2023/06/30 02:44:23;;;;;;;;;8.67;7.00;;;;;18.74;65.17;101331.72;5085434;27;70928;-59
2023/06/30 02:46:48;;;;;;;;;8.33;7.67;;;;;18.74;64.86;101333.56;5090441;27;45303;-59
2023/06/30 02:49:14;;;;;;;;;12.00;12.00;;;;;18.74;64.99;101336.25;5063476;27;45682;-59
2023/06/30 02:51:39;;;;;;;;;19.67;17.67;;;;;18.74;65.32;101333.56;5074400;27;55866;-59
2023/06/30 02:54:04;;;;;;;;;18.67;15.33;;;;;18.75;64.28;101330.72;5062209;27;64672;-60
2023/06/30 02:56:30;;;;;;;;;15.67;12.67;;;;;18.72;64.43;101335.50;5083134;27;66726;-59
2023/06/30 02:58:55;;;;;;;;;12.00;12.00;;;;;18.64;64.45;101339.66;5077994;27;55410;-59
2023/06/30 03:01:21;;;;;;;;;15.67;12.00;;;;;18.60;64.53;101340.81;5067193;27;47391;-59
2023/06/30 03:03:47;;;;;;;;;9.33;9.00;;;;;18.57;64.87;101332.13;5069814;28;45585;-59
2023/06/30 03:06:12;;;;;;;;;12.33;11.00;;;;;18.52;65.22;101327.97;5069922;27;45406;-59
2023/06/30 03:08:38;;;;;;;;;7.67;7.67;;;;;18.49;65.05;101327.34;5069202;27;45433;-59
2023/06/30 03:11:03;;;;;;;;;7.33;7.33;;;;;18.45;65.42;101324.00;5074304;27;45770;-59
2023/06/30 03:13:28;;;;;;;;;10.00;7.67;;;;;18.42;64.53;101326.06;5060437;27;59577;-59
2023/06/30 03:15:54;;;;;;;;;7.00;7.00;;;;;18.37;65.37;101323.72;5071160;27;67533;-59
2023/06/30 03:18:19;;;;;;;;;7.00;7.00;;;;;18.37;65.14;101323.72;5068630;27;61399;-59
2023/06/30 03:20:45;;;;;;;;;7.00;7.00;;;;;18.37;64.38;101322.84;5064524;27;45149;-59
2023/06/30 03:23:13;;;;;;;;;7.67;7.33;;;;;18.33;65.09;101320.41;5082432;27;65003;-59
2023/06/30 03:25:38;;;;;;;;;7.00;7.00;;;;;18.30;65.18;101319.75;5074950;27;45475;-59
2023/06/30 03:28:04;;;;;;;;;7.67;6.00;;;;;18.27;65.72;101318.16;5072762;27;48147;-59
2023/06/30 03:30:29;;;;;;;;;8.00;8.00;;;;;18.26;65.48;101319.13;5074539;27;45761;-59
2023/06/30 03:32:54;;;;;;;;;6.67;6.33;;;;;18.25;65.27;101311.16;5068007;27;46338;-59
2023/06/30 03:35:20;;;;;;;;;7.00;7.00;;;;;18.24;65.16;101318.41;5081271;27;59759;-59
2023/06/30 03:37:45;;;;;;;;;6.67;6.67;;;;;18.22;65.66;101312.25;5070104;27;54190;-59
2023/06/30 03:40:11;;;;;;;;;9.00;7.33;;;;;18.17;65.93;101311.72;5076980;27;46252;-59
2023/06/30 03:42:36;;;;;;;;;7.67;7.67;;;;;18.14;65.86;101307.44;5076723;27;46088;-59
2023/06/30 03:45:02;;;;;;;;;8.33;8.33;;;;;18.10;65.10;101302.41;5075242;28;66250;-59
2023/06/30 03:47:27;;;;;;;;;8.00;6.33;;;;;18.07;65.81;101311.56;5076325;27;45431;-59
2023/06/30 03:49:52;;;;;;;;;9.67;9.67;;;;;18.05;66.03;101315.34;5069852;27;45692;-59
2023/06/30 03:52:18;;;;;;;;;10.33;9.33;;;;;18.01;65.78;101317.41;5066620;27;49282;-59
2023/06/30 03:54:43;;;;;;;;;9.00;7.33;;;;;17.98;65.83;101318.47;5062122;27;67976;-59
2023/06/30 03:57:08;;;;;;;;;9.33;7.00;;;;;17.98;65.67;101323.88;5074334;27;44943;-60
2023/06/30 03:59:33;;;;;;;;;11.67;10.00;;;;;17.96;65.62;101312.34;5067620;27;54195;-59
2023/06/30 04:01:59;;;;;;;;;8.67;8.33;;;;;17.95;65.96;101313.34;5068171;27;70167;-59
2023/06/30 04:04:24;;;;;;;;;12.00;12.00;;;;;17.92;65.79;101312.66;5065785;27;45833;-59
2023/06/30 04:06:50;;;;;;;;;21.00;21.00;;;;;17.90;65.57;101312.78;5083432;27;45786;-59
2023/06/30 04:09:15;;;;;;;;;24.00;19.33;;;;;17.88;66.04;101320.09;5092132;27;45654;-60
2023/06/30 04:11:41;;;;;;;;;23.33;19.00;;;;;17.87;66.37;101312.97;5071107;27;46561;-60
2023/06/30 04:14:07;;;;;;;;;17.33;16.33;;;;;17.88;65.77;101312.00;5074286;27;69025;-60
2023/06/30 04:16:32;;;;;;;;;12.33;11.00;;;;;17.89;65.51;101318.28;5081276;27;45879;-60
2023/06/30 04:18:57;;;;;;;;;13.00;13.00;;;;;17.88;65.90;101313.84;5069316;27;57279;-60
2023/06/30 04:21:23;;;;;;;;;14.67;14.67;;;;;17.88;66.26;101314.72;5068906;28;62820;-59
2023/06/30 04:23:48;;;;;;;;;14.67;13.33;;;;;17.90;65.85;101317.28;5067373;27;45376;-59
2023/06/30 04:26:17;;;;;;;;;13.00;13.00;;;;;17.89;66.76;101316.44;5071391;27;53735;-59
2023/06/30 04:28:43;;;;;;;;;12.67;11.67;;;;;17.89;66.77;101315.59;5070416;27;45477;-60
2023/06/30 04:31:08;;;;;;;;;16.33;13.00;;;;;17.90;66.44;101315.47;5074495;28;45432;-59
2023/06/30 04:33:34;;;;;;;;;19.00;15.00;;;;;17.91;67.04;101314.47;5070283;27;45391;-59
2023/06/30 04:35:59;;;;;;;;;19.67;18.00;;;;;17.92;66.16;101318.03;5073870;28;45544;-59
2023/06/30 04:38:25;;;;;;;;;20.00;18.33;;;;;17.91;66.97;101324.38;5061422;27;45476;-60
2023/06/30 04:40:50;;;;;;;;;18.67;17.67;;;;;17.92;66.80;101323.41;5090828;27;45502;-58
2023/06/30 04:43:16;;;;;;;;;13.00;13.00;;;;;17.91;66.91;101317.16;5093467;27;45413;-59
2023/06/30 04:45:42;;;;;;;;;20.33;17.67;;;;;17.88;66.94;101320.09;5073913;28;45491;-60
2023/06/30 04:48:07;;;;;;;;;33.00;30.67;;;;;17.89;67.65;101312.91;5081843;27;45278;-58
2023/06/30 04:50:33;;;;;;;;;51.67;42.00;;;;;17.91;67.84;101319.84;5092967;27;48201;-58
2023/06/30 04:52:58;;;;;;;;;40.33;34.00;;;;;17.94;67.92;101308.03;5065742;27;45397;-58
2023/06/30 04:55:23;;;;;;;;;42.00;36.00;;;;;17.98;67.63;101306.88;5067746;28;60133;-58
2023/06/30 04:57:49;;;;;;;;;28.00;24.33;;;;;18.02;68.34;101311.91;5066008;27;62523;-58
2023/06/30 05:00:15;;;;;;;;;14.33;13.33;;;;;18.08;68.68;101309.72;5068885;28;47577;-58
2023/06/30 05:02:40;;;;;;;;;14.33;12.33;;;;;18.10;67.99;101310.47;5068539;28;45863;-58
2023/06/30 05:05:06;;;;;;;;;11.67;11.00;;;;;18.12;67.90;101303.13;5068994;28;45666;-59
2023/06/30 05:07:32;;;;;;;;;6.00;6.00;;;;;18.14;67.97;101303.91;5073311;28;45659;-59
2023/06/30 05:09:57;;;;;;;;;9.67;7.00;;;;;18.18;67.20;101313.47;5090768;27;69347;-59
2023/06/30 05:12:22;;;;;;;;;7.33;7.00;;;;;18.19;68.75;101316.03;5068632;27;61631;-58
2023/06/30 05:14:48;;;;;;;;;8.00;6.33;;;;;18.23;67.51;101311.28;5066629;27;45555;-59
2023/06/30 05:17:14;;;;;;;;;6.00;6.00;;;;;18.30;67.82;101315.25;5076629;28;45403;-58
2023/06/30 05:19:39;;;;;;;;;8.00;7.00;;;;;18.47;67.84;101318.50;5079183;27;45526;-58
2023/06/30 05:22:05;;;;;;;;;6.00;6.00;;;;;18.57;67.03;101318.66;5069463;27;46221;-59
2023/06/30 05:24:30;;;;;;;;;6.67;4.67;;;;;18.59;66.69;101325.66;5070881;27;45577;-59
2023/06/30 05:26:56;;;;;;;;;6.33;6.00;;;;;18.62;66.52;101333.50;5079949;27;57514;-59
2023/06/30 05:29:21;;;;;;;;;7.00;5.33;;;;;18.81;66.30;101332.97;5073413;28;46196;-59
2023/06/30 05:31:47;;;;;;;;;6.33;6.33;;;;;19.20;65.98;101337.25;5070405;27;45414;-59
2023/06/30 05:34:15;;;;;;;;;6.00;6.00;;;;;19.31;65.26;101335.44;5071620;28;45429;-59
2023/06/30 05:36:43;;;;;;;;;7.67;7.00;;;;;19.46;65.06;101333.38;5077595;28;45516;-56
2023/06/30 05:39:08;;;;;;;;;12.67;10.00;;;;;19.53;64.54;101333.75;5090627;27;48204;-56
2023/06/30 05:41:33;;;;;;;;;11.00;10.00;;;;;19.57;63.83;101335.22;5070019;28;45499;-56
2023/06/30 05:43:59;;;;;;;;;11.33;10.00;;;;;19.63;63.38;101333.84;5077556;28;52291;-56
2023/06/30 05:46:24;;;;;;;;;5.67;4.00;;;;;19.70;63.60;101335.09;5067394;28;59412;-56
2023/06/30 05:48:49;;;;;;;;;5.00;5.00;;;;;20.15;63.30;101334.19;5069604;27;46199;-56
2023/06/30 05:51:15;;;;;;;;;4.67;4.00;;;;;20.62;61.23;101329.38;5075742;28;45430;-56
2023/06/30 05:53:40;;;;;;;;;7.00;7.00;;;;;20.67;60.32;101323.56;5078764;27;65414;-56
2023/06/30 05:56:05;;;;;;;;;5.00;5.00;;;;;20.58;60.08;101330.59;5074109;27;45532;-56
2023/06/30 05:58:31;;;;;;;;;4.00;4.00;;;;;20.46;60.34;101329.78;5069142;28;45573;-56
2023/06/30 06:00:56;;;;;;;;;6.00;5.00;;;;;20.41;60.54;101333.88;5078819;27;45661;-56
2023/06/30 06:03:22;;;;;;;;;3.00;3.00;;;;;20.34;60.42;101328.13;5063326;27;45389;-56
2023/06/30 06:05:47;;;;;;;;;4.67;4.67;;;;;20.31;60.20;101331.94;5071853;27;45628;-56
2023/06/30 06:08:12;;;;;;;;;4.67;4.67;;;;;20.32;60.52;101335.50;5076917;27;68397;-57
2023/06/30 06:10:38;;;;;;;;;5.00;4.67;;;;;20.36;60.21;101331.53;5077472;27;45345;-58
2023/06/30 06:13:03;;;;;;;;;5.00;5.00;;;;;20.40;60.22;101332.16;5092347;27;45287;-59
2023/06/30 06:15:28;;;;;;;;;3.67;3.67;;;;;20.42;59.87;101328.34;5078922;27;45698;-56
2023/06/30 06:17:54;;;;;;;;;6.33;5.00;;;;;20.46;59.77;101328.94;5096654;27;47439;-59
2023/06/30 06:20:19;;;;;;;;;7.67;7.67;;;;;20.42;59.12;101330.19;5077500;27;45570;-59
2023/06/30 06:22:45;;;;;;;;;8.00;6.33;;;;;20.43;59.45;101335.47;5076494;27;45396;-57
2023/06/30 06:25:10;;;;;;;;;10.00;7.00;;;;;20.48;58.70;101327.84;5074264;27;45823;-57
2023/06/30 06:27:36;;;;;;;;;5.67;5.67;;;;;20.57;58.61;101334.31;5075527;27;46031;-59
2023/06/30 06:30:05;;;;;;;;;6.67;6.67;;;;;20.73;58.50;101338.44;5078388;28;45541;-59
2023/06/30 06:32:31;;;;;;;;;7.00;5.67;;;;;20.90;58.53;101340.56;5077343;28;45406;-56
2023/06/30 06:34:57;;;;;;;;;6.00;4.00;;;;;21.08;57.34;101346.25;5073734;27;45544;-49
2023/06/30 06:37:22;;;;;;;;;7.00;7.00;;;;;21.41;57.34;101356.97;5074061;27;46148;-49
2023/06/30 06:39:48;;;;;;;;;8.00;7.00;;;;;23.37;56.67;101355.44;5074044;27;45422;-53
2023/06/30 06:42:13;;;;;;;;;6.33;6.00;;;;;25.90;51.93;101350.91;5075881;27;56257;-53
2023/06/30 06:44:38;;;;;;;;;7.00;5.00;;;;;28.21;46.48;101347.16;5067744;28;52308;-53
2023/06/30 06:47:41;;;;;;;;;5.00;5.00;;;;;30.40;43.75;101355.38;5070051;27;45315;-52
2023/06/30 06:50:07;;;;;;;;;5.33;5.33;;;;;32.20;38.53;101351.44;5071495;28;45454;-52
2023/06/30 06:52:34;;;;;;;;;9.67;7.33;;;;;33.62;37.31;101351.22;5079859;27;45377;-49
2023/06/30 06:54:59;;;;;;;;;8.00;8.00;;;;;34.82;32.34;101349.75;5070491;27;45504;-51
2023/06/30 06:57:24;;;;;;;;;8.00;6.00;;;;;35.66;31.51;101354.91;5083280;27;58878;-52
2023/06/30 06:59:50;;;;;;;;;9.67;7.33;;;;;36.02;31.15;101364.28;5075235;27;63942;-59
2023/06/30 07:02:15;;;;;;;;;6.00;6.00;;;;;36.16;30.28;101362.16;5083257;27;66675;-58
2023/06/30 07:04:40;;;;;;;;;7.00;7.00;;;;;36.37;30.34;101360.81;5071893;27;45617;-56
2023/06/30 07:07:06;;;;;;;;;7.00;6.33;;;;;35.98;28.06;101357.50;5075731;27;49910;-52
2023/06/30 07:09:31;;;;;;;;;8.33;7.00;;;;;35.92;29.22;101364.00;5068306;27;63455;-55
2023/06/30 07:11:56;;;;;;;;;6.00;6.00;;;;;35.26;28.54;101361.69;5064001;28;62447;-52
2023/06/30 07:14:23;;;;;;;;;7.33;6.33;;;;;35.32;28.54;101359.94;5070405;28;45516;-54
2023/06/30 07:16:49;;;;;;;;;9.33;7.00;;;;;35.53;29.47;101352.31;5073879;28;48319;-54
2023/06/30 07:19:15;;;;;;;;;7.00;7.00;;;;;36.12;28.76;101358.19;5075988;28;45575;-53
2023/06/30 07:21:40;;;;;;;;;10.75;9.00;;;;;36.83;28.93;101352.03;5072861;27;45354;-53
2023/06/30 07:24:05;;;;;;;;;9.50;9.50;;;;;37.88;27.04;101352.22;5088913;27;45469;-53
2023/06/30 07:26:33;;;;;;;;;11.33;10.33;;;;;38.46;26.10;101358.63;5066958;28;46268;-51
2023/06/30 07:28:58;;;;;;;;;10.00;8.25;;;;;39.12;25.75;101354.41;5089240;27;45518;-53
2023/06/30 07:31:24;;;;;;;;;7.00;7.00;;;;;39.28;24.22;101359.09;5074448;28;45930;-51
2023/06/30 07:33:49;;;;;;;;;7.67;7.67;;;;;39.29;23.67;101362.75;5076537;27;45529;-52
2023/06/30 07:36:14;;;;;;;;;12.00;10.33;;;;;39.86;23.49;101369.91;5076105;27;46852;-53
2023/06/30 07:38:40;;;;;;;;;11.00;11.00;;;;;40.57;23.28;101373.75;5068324;27;68746;-52
2023/06/30 07:41:05;;;;;;;;;8.00;8.00;;;;;41.32;21.81;101357.88;5055422;28;48424;-53
2023/06/30 07:43:31;;;;;;;;;10.75;9.00;;;;;42.15;21.07;101366.59;5079190;27;45972;-53
2023/06/30 07:45:56;;;;;;;;;9.50;9.00;;;;;43.07;20.57;101370.56;5070214;28;46043;-51
2023/06/30 07:48:21;;;;;;;;;8.25;7.00;;;;;43.43;20.18;101381.66;5075383;28;68641;-57
2023/06/30 07:50:47;;;;;;;;;10.75;10.75;;;;;43.85;19.24;101371.19;5078560;27;45359;-55
2023/06/30 07:53:12;;;;;;;;;10.67;10.67;;;;;43.86;19.60;101370.88;5069046;27;58798;-54
2023/06/30 07:55:37;;;;;;;;;7.33;6.00;;;;;44.02;19.56;101365.22;5065861;28;65502;-54
2023/06/30 07:58:02;;;;;;;;;10.00;10.00;;;;;44.19;18.43;101362.88;5073333;28;45868;-54
2023/06/30 08:00:29;;;;;;;;;7.00;7.00;;;;;44.24;19.16;101365.63;5065465;28;66383;-54
2023/06/30 08:02:54;;;;;;;;;10.00;8.25;;;;;44.21;18.57;101362.56;5070930;27;45851;-54
2023/06/30 08:05:20;;;;;;;;;10.50;8.50;;;;;44.21;18.45;101368.16;5061640;28;45447;-54
2023/06/30 08:07:46;;;;;;;;;11.75;8.00;;;;;44.51;16.51;101369.94;5069879;28;46384;-54
2023/06/30 08:10:12;;;;;;;;;5.00;5.00;;;;;44.79;16.11;101367.47;5064935;27;45308;-56
2023/06/30 08:12:37;;;;;;;;;7.50;7.50;;;;;44.68;18.83;101371.47;5068945;27;52852;-54
2023/06/30 08:15:03;;;;;;;;;7.75;7.00;;;;;45.09;18.04;101376.72;5071426;28;62848;-54
2023/06/30 08:17:28;;;;;;;;;8.25;8.25;;;;;45.54;16.95;101374.56;5067945;28;45671;-53
2023/06/30 08:19:53;;;;;;;;;5.00;5.00;;;;;45.69;15.83;101369.88;5064337;27;66860;-54
2023/06/30 08:22:21;;;;;;;;;4.00;3.00;;;;;44.65;15.26;101366.47;5077483;27;64205;-54
2023/06/30 08:24:46;;;;;;;;;4.25;3.25;;;;;43.21;15.31;101371.69;5077697;28;45374;-53
2023/06/30 08:27:12;;;;;;;;;5.00;5.00;;;;;41.86;17.73;101364.28;5075012;27;45422;-54
2023/06/30 08:29:37;;;;;;;;;5.50;5.50;;;;;41.03;17.85;101362.16;5069575;28;48155;-54
2023/06/30 08:32:03;;;;;;;;;6.50;4.25;;;;;40.34;19.46;101375.75;5069191;28;45539;-53
2023/06/30 08:34:29;;;;;;;;;4.75;3.75;;;;;39.93;18.70;101356.63;5076651;28;45873;-53
2023/06/30 08:36:55;;;;;;;;;4.50;4.00;;;;;39.75;18.14;101356.97;5069157;28;66910;-54
2023/06/30 08:39:21;;;;;;;;;4.75;3.00;;;;;40.06;18.56;101352.59;5069805;28;45538;-53
2023/06/30 08:41:49;;;;;;;;;3.50;3.50;;;;;41.28;18.26;101350.31;5076952;28;45455;-54
2023/06/30 08:44:15;;;;;;;;;4.25;3.50;;;;;42.41;16.42;101353.53;5077431;27;47343;-54
2023/06/30 08:46:41;;;;;;;;;3.00;3.00;;;;;43.33;15.99;101351.78;5077161;27;45924;-52
2023/06/30 08:49:07;;;;;;;;;6.00;3.00;;;;;44.24;15.10;101345.19;5071324;28;45741;-54
2023/06/30 08:51:33;;;;;;;;;4.25;4.25;;;;;44.74;15.43;101348.72;5068441;28;45389;-54
2023/06/30 08:53:58;;;;;;;;;3.00;3.00;;;;;45.24;14.32;101351.31;5073021;28;46135;-55
2023/06/30 08:56:25;;;;;;;;;2.00;2.00;;;;;45.66;14.77;101356.41;5071161;28;45489;-55
2023/06/30 08:58:51;;;;;;;;;2.75;1.25;;;;;46.16;13.52;101348.41;5073114;28;53977;-56
2023/06/30 09:01:17;;;;;;;;;1.00;1.00;;;;;46.21;14.13;101347.50;5092115;27;45361;-55
2023/06/30 09:03:42;;;;;;;;;1.25;1.25;;;;;46.08;14.49;101340.69;5067458;27;46216;-55
2023/06/30 09:06:10;;;;;;;;;3.00;3.00;;;;;46.23;13.98;101343.25;5070694;28;45393;-55
2023/06/30 09:08:54;;;;;;;;;3.00;2.00;;;;;46.11;14.12;101331.63;5074079;27;45580;-54
2023/06/30 09:11:23;;;;;;;;;4.75;4.25;;;;;45.87;14.06;101331.72;5070682;27;45500;-54
2023/06/30 09:13:48;;;;;;;;;3.00;3.00;;;;;45.96;13.99;101326.25;5070559;28;47539;-55
2023/06/30 09:16:15;;;;;;;;;1.50;1.50;;;;;46.04;13.40;101326.41;5049127;28;46662;-54
2023/06/30 09:18:42;;;;;;;;;3.25;2.00;;;;;45.79;13.54;101324.81;5059549;28;45516;-54
2023/06/30 09:21:10;;;;;;;;;3.25;2.00;;;;;45.42;14.67;101317.97;5080024;28;45322;-55
2023/06/30 09:23:38;;;;;;;;;2.25;2.25;;;;;43.84;14.14;101324.69;5075947;27;45732;-55
2023/06/30 09:26:13;;;;;;;;;6.25;4.00;;;;;42.06;16.15;101330.00;5064160;28;45429;-53
2023/06/30 09:28:40;;;;;;;;;6.00;4.00;;;;;40.56;15.88;101330.28;5076711;27;45504;-58
2023/06/30 09:31:06;;;;;;;;;2.50;2.50;;;;;39.88;17.06;101334.28;5073544;27;45490;-58
2023/06/30 09:33:34;;;;;;;;;3.25;2.50;;;;;40.32;17.61;101334.22;5102907;27;45327;-58
2023/06/30 09:36:00;;;;;;;;;4.50;4.25;;;;;40.97;16.61;101322.25;5072820;28;45573;-58
2023/06/30 09:38:28;;;;;;;;;6.75;4.00;;;;;41.55;17.22;101321.44;5064450;27;46103;-58
2023/06/30 09:40:53;;;;;;;;;4.00;4.00;;;;;42.04;16.53;101320.22;5074600;28;46027;-58
2023/06/30 09:43:20;;;;;;;;;3.50;3.00;;;;;41.61;16.31;101321.19;5072067;27;46938;-58
2023/06/30 09:45:49;;;;;;;;;3.50;3.50;;;;;41.17;16.21;101322.38;5075515;27;45484;-58
2023/06/30 09:48:15;;;;;;;;;2.00;2.00;;;;;40.91;17.44;101332.47;5071910;28;45409;-59
2023/06/30 09:50:42;;;;;;;;;3.00;3.00;;;;;40.99;17.32;101329.25;5076950;27;51803;-59
2023/06/30 09:53:07;;;;;;;;;2.25;2.25;;;;;41.20;16.93;101311.78;5076738;27;46343;-59
2023/06/30 09:55:45;;;;;;;;;2.75;2.75;;;;;41.55;16.60;101315.88;5071991;27;45461;-58
2023/06/30 09:58:11;;;;;;;;;2.25;2.25;;;;;41.71;16.19;101303.66;5075033;28;45375;-58
2023/06/30 10:00:36;;;;;;;;;4.50;3.00;;;;;41.39;16.48;101307.44;5069956;28;63877;-58
2023/06/30 10:03:05;;;;;;;;;2.25;2.25;;;;;41.64;16.18;101303.91;5077985;27;68036;-58
2023/06/30 10:05:31;;;;;;;;;2.50;2.50;;;;;42.13;15.58;101297.03;5078140;27;45528;-58
2023/06/30 10:07:59;;;;;;;;;1.25;1.25;;;;;42.86;15.39;101297.91;5076766;27;46608;-59
2023/06/30 10:10:25;;;;;;;;;4.50;3.25;;;;;43.40;15.29;101299.13;5078057;27;45489;-59
2023/06/30 10:12:50;;;;;;;;;1.75;1.75;;;;;42.40;14.18;101298.78;5080287;28;66065;-59
2023/06/30 10:15:15;;;;;;;;;1.00;1.00;;;;;40.56;15.57;101300.50;5079340;28;45942;-59
2023/06/30 10:17:43;;;;;;;;;0.50;0.50;;;;;39.35;16.69;101292.19;5079665;27;61507;-58
2023/06/30 10:20:08;;;;;;;;;2.00;2.00;;;;;38.35;17.65;101296.47;5079570;28;45504;-57
2023/06/30 10:22:35;;;;;;;;;2.50;2.50;;;;;37.47;17.81;101284.75;5078875;28;46513;-58
2023/06/30 10:25:01;;;;;;;;;2.00;2.00;;;;;36.51;17.97;101289.47;5077662;28;45845;-57
2023/06/30 10:27:27;;;;;;;;;3.50;3.50;;;;;35.64;19.71;101296.22;5088603;27;54851;-59
2023/06/30 10:29:54;;;;;;;;;2.25;2.25;;;;;34.92;20.00;101289.34;5076627;27;45412;-58
2023/06/30 10:32:20;;;;;;;;;2.75;2.75;;;;;34.42;20.90;101290.19;5079141;28;73225;-59
2023/06/30 10:34:47;;;;;;;;;2.25;2.25;;;;;34.52;21.31;101291.59;5072338;27;45295;-58
2023/06/30 10:37:13;;;;;;;;;3.00;3.00;;;;;35.24;20.66;101291.13;5067644;27;45368;-58
2023/06/30 10:39:39;;;;;;;;;4.00;4.00;;;;;35.82;20.56;101294.50;5084550;27;45605;-62
2023/06/30 10:42:05;;;;;;;;;2.50;2.50;;;;;36.00;20.16;101296.41;5071813;28;45565;-58
2023/06/30 10:44:43;;;;;;;;;4.00;2.75;;;;;36.59;20.15;101286.34;5079708;27;45504;-59
2023/06/30 10:47:09;;;;;;;;;3.00;3.00;;;;;36.58;19.62;101287.44;5071920;28;45480;-57
2023/06/30 10:49:36;;;;;;;;;2.00;2.00;;;;;35.99;19.77;101295.56;5078997;27;45584;-58
2023/06/30 10:52:14;;;;;;;;;2.25;1.25;;;;;35.09;20.37;101295.09;5074074;28;45484;-57
2023/06/30 10:54:47;;;;;;;;;2.25;2.25;;;;;34.41;21.02;101285.72;5072810;28;45706;-57
2023/06/30 10:57:14;;;;;;;;;2.75;2.00;;;;;34.49;21.10;101292.88;5093574;27;45372;-56
2023/06/30 10:59:44;;;;;;;;;3.00;3.00;;;;;34.90;21.09;101298.91;5079955;27;45292;-57
2023/06/30 11:02:18;;;;;;;;;2.00;2.00;;;;;35.40;20.72;101293.31;5072404;28;46251;-57
2023/06/30 11:04:47;;;;;;;;;2.00;2.00;;;;;36.03;20.34;101298.72;5068418;28;45327;-57
2023/06/30 11:07:25;;;;;;;;;2.25;2.25;;;;;36.54;19.94;101293.69;5080969;27;45367;-57
2023/06/30 11:09:50;;;;;;;;;2.75;2.75;;;;;36.40;20.42;101282.84;5082562;27;45785;-58
2023/06/30 11:12:26;;;;;;;;;3.25;2.00;;;;;35.87;20.55;101294.69;5077101;27;46554;-57
2023/06/30 11:14:58;;;;;;;;;1.00;1.00;;;;;35.11;20.46;101289.38;5077217;28;45379;-57
2023/06/30 11:17:25;;;;;;;;;4.00;3.00;;;;;34.28;20.84;101288.56;5068394;27;45465;-58